createdAt,value
2019-06-08T00:00:01.543Z,996.8
2019-06-08T00:05:01.722Z,996.85
2019-06-08T00:10:01.834Z,996.95
2019-06-08T00:15:01.935Z,996.81
2019-06-08T00:20:02.093Z,997.01
2019-06-08T00:25:01.335Z,997.06
2019-06-08T00:30:01.576Z,997.24
2019-06-08T00:35:01.757Z,997.27
2019-06-08T00:40:01.996Z,997.24
2019-06-08T00:45:01.215Z,997.22
2019-06-08T00:50:01.329Z,997.13
2019-06-08T00:55:01.464Z,997.18
2019-06-08T01:00:09.748Z,997.4
2019-06-08T01:05:01.248Z,997.19
2019-06-08T01:10:01.375Z,997.23
2019-06-08T01:15:01.541Z,997.19
2019-06-08T01:20:01.841Z,997.25
2019-06-08T01:25:02.005Z,997.29
2019-06-08T01:30:01.178Z,997.31
2019-06-08T01:35:01.277Z,997.4
2019-06-08T01:40:01.403Z,997.41
2019-06-08T01:45:01.697Z,997.55
2019-06-08T01:50:01.840Z,997.61
2019-06-08T01:55:01.962Z,997.75
2019-06-08T02:00:28.675Z,997.85
2019-06-08T02:05:01.194Z,997.77
2019-06-08T02:10:01.324Z,997.89
2019-06-08T02:15:01.458Z,997.86
2019-06-08T02:20:01.955Z,998.13
2019-06-08T02:25:02.070Z,998.15
2019-06-08T02:30:01.173Z,998.35
2019-06-08T02:35:01.292Z,998.41
2019-06-08T02:40:01.151Z,998.51
2019-06-08T02:45:01.261Z,998.63
2019-06-08T02:50:01.362Z,998.63
2019-06-08T02:55:01.499Z,998.67
2019-06-08T03:00:01.628Z,998.84
2019-06-08T03:05:01.737Z,998.86
2019-06-08T03:10:01.857Z,998.84
2019-06-08T03:15:02.037Z,998.85
2019-06-08T03:20:01.159Z,998.88
2019-06-08T03:25:01.282Z,998.96
2019-06-08T03:30:15.058Z,999.11
2019-06-08T03:35:01.977Z,999.23
2019-06-08T03:40:02.105Z,999.34
2019-06-08T03:45:01.235Z,999.52
2019-06-08T03:50:01.332Z,999.68
2019-06-08T03:55:01.483Z,999.76
2019-06-08T04:00:01.671Z,999.89
2019-06-08T04:05:01.818Z,1000.01
2019-06-08T04:10:01.980Z,1000.04
2019-06-08T04:15:02.131Z,1000.1
2019-06-08T04:20:10.121Z,1000.14
2019-06-08T04:25:02.003Z,1000.23
2019-06-08T04:30:01.145Z,1000.34
2019-06-08T04:35:01.432Z,1000.45
2019-06-08T04:40:01.453Z,1000.48
2019-06-08T04:45:01.600Z,1000.55
2019-06-08T04:50:20.252Z,1000.48
2019-06-08T04:55:01.517Z,1000.49
2019-06-08T05:00:11.171Z,1000.55
2019-06-08T05:05:01.784Z,1000.65
2019-06-08T05:10:01.913Z,1000.68
2019-06-08T05:15:02.079Z,1000.81
2019-06-08T05:20:01.211Z,1000.82
2019-06-08T05:25:01.336Z,1000.86
2019-06-08T05:30:08.140Z,1000.97
2019-06-08T05:35:02.056Z,1001.02
2019-06-08T05:40:01.179Z,1001.07
2019-06-08T05:45:01.311Z,1001.13
2019-06-08T05:50:01.404Z,1001.15
2019-06-08T05:55:01.553Z,1001.1
2019-06-08T06:00:08.388Z,1001.12
2019-06-08T06:05:02.055Z,1001.07
2019-06-08T06:10:01.192Z,1001
2019-06-08T06:15:01.346Z,1001.06
2019-06-08T06:20:01.544Z,1001.14
2019-06-08T06:25:01.690Z,1001.25
2019-06-08T06:30:01.991Z,1001.35
2019-06-08T06:35:01.275Z,1001.74
2019-06-08T06:40:01.400Z,1001.75
2019-06-08T06:45:01.554Z,1001.77
2019-06-08T06:50:01.670Z,1001.85
2019-06-08T06:55:01.840Z,1001.87
2019-06-08T07:00:01.985Z,1002
2019-06-08T07:05:01.096Z,1002.05
2019-06-08T07:10:01.184Z,1002.13
2019-06-08T07:15:01.328Z,1002.01
2019-06-08T07:20:01.433Z,1002.09
2019-06-08T07:25:01.558Z,1002.2
2019-06-08T07:30:01.703Z,1002.31
2019-06-08T07:35:01.852Z,1002.32
2019-06-08T07:40:01.993Z,1002.41
2019-06-08T07:45:01.121Z,1002.37
2019-06-08T07:50:04.517Z,1002.44
2019-06-08T07:55:01.990Z,1002.42
2019-06-08T08:00:08.837Z,1002.49
2019-06-08T08:05:01.880Z,1002.43
2019-06-08T08:10:02.077Z,1002.53
2019-06-08T08:15:01.273Z,1002.57
2019-06-08T08:20:01.365Z,1002.63
2019-06-08T08:25:04.592Z,1002.66
2019-06-08T08:30:02.126Z,1002.7
2019-06-08T08:35:03.000Z,1002.82
2019-06-08T08:40:01.527Z,1002.86
2019-06-08T08:45:05.147Z,1002.94
2019-06-08T08:50:02.200Z,1002.93
2019-06-08T08:55:02.224Z,1002.96
2019-06-08T09:00:04.797Z,1002.96
2019-06-08T09:05:03.399Z,1003.1
2019-06-08T09:10:03.609Z,1003.28
2019-06-08T09:15:03.537Z,1003.27
2019-06-08T09:20:03.665Z,1003.31
2019-06-08T09:25:04.309Z,1003.41
2019-06-08T09:30:04.389Z,1003.41
2019-06-08T09:35:04.632Z,1003.51
2019-06-08T09:40:03.520Z,1003.44
2019-06-08T09:45:04.241Z,1003.54
2019-06-08T09:50:03.813Z,1003.5
2019-06-08T09:55:03.708Z,1003.61
2019-06-08T10:00:08.345Z,1003.78
2019-06-08T10:05:04.038Z,1003.83
2019-06-08T10:10:03.126Z,1003.93
2019-06-08T10:15:02.844Z,1003.91
2019-06-08T10:20:03.273Z,1004.01
2019-06-08T10:25:04.509Z,1003.99
2019-06-08T10:30:04.303Z,1003.87
2019-06-08T10:35:03.625Z,1004
2019-06-08T10:40:03.726Z,1004.01
2019-06-08T10:45:05.173Z,1003.99
2019-06-08T10:50:06.403Z,1004.03
2019-06-08T10:55:03.355Z,1004.08
2019-06-08T11:00:12.349Z,1004.28
2019-06-08T11:05:04.351Z,1004.22
2019-06-08T11:10:02.011Z,1004.31
2019-06-08T11:15:03.148Z,1004.36
2019-06-08T11:20:03.976Z,1004.46
2019-06-08T11:25:02.490Z,1004.48
2019-06-08T11:30:09.976Z,1004.51
2019-06-08T11:35:02.064Z,1004.52
2019-06-08T11:40:02.161Z,1004.66
2019-06-08T11:45:02.288Z,1004.67
2019-06-08T11:50:02.843Z,1004.71
2019-06-08T11:55:02.581Z,1004.74
2019-06-08T12:00:08.790Z,1004.74
2019-06-08T12:05:01.762Z,1004.93
2019-06-08T12:10:02.988Z,1004.73
2019-06-08T12:15:01.230Z,1004.78
2019-06-08T12:20:01.324Z,1004.74
2019-06-08T12:25:01.454Z,1004.93
2019-06-08T12:30:08.153Z,1004.96
2019-06-08T12:35:01.108Z,1004.86
2019-06-08T12:40:01.543Z,1005.01
2019-06-08T12:45:01.711Z,1004.96
2019-06-08T12:50:01.812Z,1004.81
2019-06-08T12:55:06.920Z,1005
2019-06-08T13:00:02.032Z,1004.98
2019-06-08T13:05:01.135Z,1005.02
2019-06-08T13:10:01.258Z,1005.05
2019-06-08T13:15:01.408Z,1005.12
2019-06-08T13:20:01.513Z,1005.24
2019-06-08T13:25:15.665Z,1005.22
2019-06-08T13:30:01.755Z,1005.23
2019-06-08T13:35:01.884Z,1005.2
2019-06-08T13:40:02.041Z,1005.23
2019-06-08T13:45:01.244Z,1005.18
2019-06-08T13:50:01.350Z,1005.26
2019-06-08T13:55:01.505Z,1005.35
2019-06-08T14:00:01.629Z,1005.3
2019-06-08T14:05:01.755Z,1005.41
2019-06-08T14:10:01.854Z,1005.29
2019-06-08T14:15:02.096Z,1005.24
2019-06-08T14:20:01.193Z,1005.15
2019-06-08T14:25:01.317Z,1005.08
2019-06-08T14:30:01.476Z,1005.2
2019-06-08T14:35:02.969Z,1005.23
2019-06-08T14:40:01.277Z,1005.38
2019-06-08T14:45:01.404Z,1005.49
2019-06-08T14:50:02.083Z,1005.35
2019-06-08T14:55:01.345Z,1005.5
2019-06-08T15:00:08.398Z,1005.45
2019-06-08T15:05:01.874Z,1005.28
2019-06-08T15:10:02.025Z,1005.27
2019-06-08T15:15:01.188Z,1005.24
2019-06-08T15:20:01.283Z,1005.28
2019-06-08T15:25:01.423Z,1005.34
2019-06-08T15:30:01.514Z,1005.26
2019-06-08T15:35:01.639Z,1005.28
2019-06-08T15:40:01.766Z,1005.44
2019-06-08T15:45:01.900Z,1005.37
2019-06-08T15:50:01.990Z,1005.31
2019-06-08T15:55:01.687Z,1005.36
2019-06-08T16:00:01.909Z,1005.48
2019-06-08T16:05:02.019Z,1005.5
2019-06-08T16:10:01.143Z,1005.54
2019-06-08T16:15:01.327Z,1005.59
2019-06-08T16:20:01.435Z,1005.64
2019-06-08T16:25:01.560Z,1005.73
2019-06-08T16:30:08.733Z,1005.69
2019-06-08T16:35:01.821Z,1005.74
2019-06-08T16:40:01.962Z,1005.79
2019-06-08T16:45:02.162Z,1005.74
2019-06-08T16:50:01.282Z,1005.79
2019-06-08T16:55:01.431Z,1005.86
2019-06-08T17:00:29.469Z,1005.86
2019-06-08T17:05:02.054Z,1005.96
2019-06-08T17:10:01.262Z,1006.09
2019-06-08T17:15:01.405Z,1006.15
2019-06-08T17:20:04.466Z,1006.16
2019-06-08T17:25:02.117Z,1006.32
2019-06-08T17:30:08.064Z,1006.45
2019-06-08T17:35:01.849Z,1006.6
2019-06-08T17:40:01.979Z,1006.66
2019-06-08T17:45:02.106Z,1006.87
2019-06-08T17:50:01.230Z,1006.88
2019-06-08T17:55:01.396Z,1006.92
2019-06-08T18:00:01.534Z,1006.86
2019-06-08T18:05:01.688Z,1006.81
2019-06-08T18:10:01.811Z,1006.74
2019-06-08T18:15:01.961Z,1006.7
2019-06-08T18:20:02.056Z,1006.72
2019-06-08T18:25:01.149Z,1006.85
2019-06-08T18:30:08.007Z,1006.85
2019-06-08T18:35:01.121Z,1006.91
2019-06-08T18:40:01.242Z,1006.9
2019-06-08T18:45:01.384Z,1007
2019-06-08T18:50:01.477Z,1007.09
2019-06-08T18:55:01.624Z,1007.01
2019-06-08T19:00:08.137Z,1007.08
2019-06-08T19:05:01.138Z,1007.09
2019-06-08T19:10:01.243Z,1007.17
2019-06-08T19:15:01.359Z,1007.2
2019-06-08T19:20:01.451Z,1007.27
2019-06-08T19:25:01.544Z,1007.28
2019-06-08T19:30:01.671Z,1007.37
2019-06-08T19:35:01.796Z,1007.37
2019-06-08T19:40:02.016Z,1007.42
2019-06-08T19:45:05.236Z,1007.43
2019-06-08T19:50:01.336Z,1007.47
2019-06-08T19:55:01.483Z,1007.53
2019-06-08T20:00:01.611Z,1007.62
2019-06-08T20:05:01.759Z,1007.69
2019-06-08T20:10:01.993Z,1007.72
2019-06-08T20:15:01.423Z,1007.77
2019-06-08T20:20:01.533Z,1007.8
2019-06-08T20:25:01.619Z,1007.76
2019-06-08T20:30:08.870Z,1007.75
2019-06-08T20:35:01.149Z,1007.71
2019-06-08T20:40:10.249Z,1007.75
2019-06-08T20:45:01.968Z,1007.85
2019-06-08T20:50:02.083Z,1007.86
2019-06-08T20:55:01.206Z,1007.93
2019-06-08T21:00:08.183Z,1007.98
2019-06-08T21:05:01.145Z,1007.97
2019-06-08T21:10:01.282Z,1008.08
2019-06-08T21:15:01.377Z,1008.12
2019-06-08T21:20:01.490Z,1008.2
2019-06-08T21:25:01.595Z,1008.19
2019-06-08T21:30:07.001Z,1008.18
2019-06-08T21:35:02.056Z,1008.17
2019-06-08T21:40:03.846Z,1008.21
2019-06-08T21:45:02.919Z,1008.17
2019-06-08T21:50:01.601Z,1008.21
2019-06-08T21:55:01.734Z,1008.27
2019-06-08T22:00:21.907Z,1008.21
2019-06-08T22:05:04.695Z,1008.25
2019-06-08T22:10:02.923Z,1008.25
2019-06-08T22:15:03.134Z,1008.3
2019-06-08T22:20:01.358Z,1008.33
2019-06-08T22:25:01.479Z,1008.24
2019-06-08T22:30:09.763Z,1008.23
2019-06-08T22:35:01.820Z,1008.3
2019-06-08T22:40:01.457Z,1008.23
2019-06-08T22:45:02.588Z,1008.19
2019-06-08T22:50:02.539Z,1008.13
2019-06-08T22:55:05.210Z,1008.22
2019-06-08T23:00:08.103Z,1008.16
2019-06-08T23:05:03.919Z,1008.23
2019-06-08T23:10:04.164Z,1008.23
2019-06-08T23:15:02.339Z,1008.28
2019-06-08T23:20:01.985Z,1008.29
2019-06-08T23:25:02.705Z,1008.33
2019-06-08T23:30:02.223Z,1008.33
2019-06-08T23:35:02.872Z,1008.29
2019-06-08T23:40:02.593Z,1008.23
2019-06-08T23:45:02.295Z,1008.22
2019-06-08T23:50:02.559Z,1008.22
2019-06-08T23:55:02.603Z,1008.25
